Time;durP1;ratioP1;P1;durP2;ratioP2;P2;SDS_P1;SDS_P2;PMS_P1;PMS_P2;Temp;Humidity;BMP_temperature;BMP_pressure;BME280_temperature;BME280_humidity;BME280_pressure;Samples;Min_cycle;Max_cycle;Signal;HPM_P1;HPM_P2
2023/04/05 00:01:31;;;;;;;8.63;3.42;;;0.70;99.90;;;;;;4857429;29;20481;-69
2023/04/05 00:03:59;;;;;;;9.93;4.18;;;0.70;99.90;;;;;;4864568;29;20127;-69
2023/04/05 00:06:27;;;;;;;8.55;3.70;;;0.70;99.90;;;;;;4863099;29;20195;-69
2023/04/05 00:08:57;;;;;;;8.32;3.88;;;0.60;99.90;;;;;;4879762;29;20123;-69
2023/04/05 00:11:24;;;;;;;10.55;4.03;;;0.60;99.90;;;;;;4885831;29;20056;-69
2023/04/05 00:13:50;;;;;;;10.25;3.95;;;0.60;99.90;;;;;;4872373;29;20135;-69
2023/04/05 00:16:17;;;;;;;11.95;3.72;;;0.60;99.90;;;;;;4877382;29;20385;-69
2023/04/05 00:18:44;;;;;;;9.55;3.60;;;0.50;99.90;;;;;;4879662;29;20045;-69
2023/04/05 00:21:13;;;;;;;7.68;3.80;;;0.50;99.90;;;;;;4878907;29;20088;-69
2023/04/05 00:23:40;;;;;;;11.35;4.18;;;0.40;99.90;;;;;;4879645;29;20048;-69
2023/04/05 00:26:06;;;;;;;9.52;3.78;;;0.40;99.90;;;;;;4879163;29;20055;-69
2023/04/05 00:28:33;;;;;;;7.55;3.72;;;0.40;99.90;;;;;;4879838;29;20045;-69
2023/04/05 00:30:59;;;;;;;10.32;3.88;;;0.40;99.90;;;;;;4863394;29;20079;-69
2023/04/05 00:33:25;;;;;;;9.27;4.17;;;0.40;99.90;;;;;;4869522;29;20490;-69
2023/04/05 00:35:50;;;;;;;12.43;4.80;;;0.40;99.90;;;;;;4876346;29;20119;-69
2023/04/05 00:38:16;;;;;;;9.90;4.00;;;0.30;99.90;;;;;;4879480;29;20048;-69
2023/04/05 00:40:41;;;;;;;8.17;3.63;;;0.30;99.90;;;;;;4863250;29;20068;-69
2023/04/05 00:43:07;;;;;;;6.23;3.40;;;0.30;99.90;;;;;;4879491;29;20051;-69
2023/04/05 00:45:33;;;;;;;13.13;4.30;;;0.30;99.90;;;;;;4877758;29;20139;-69
2023/04/05 00:48:00;;;;;;;8.93;4.15;;;0.20;99.90;;;;;;4863334;29;20048;-69
2023/04/05 00:50:30;;;;;;;9.70;4.43;;;0.20;99.90;;;;;;4879048;29;20159;-69
2023/04/05 00:52:59;;;;;;;7.57;3.50;;;0.20;99.90;;;;;;4862440;29;20056;-69
2023/04/05 00:55:26;;;;;;;9.43;4.15;;;0.20;99.90;;;;;;4856447;29;20127;-69
2023/04/05 00:57:55;;;;;;;10.25;4.18;;;0.10;99.90;;;;;;4876490;29;20040;-69
2023/04/05 01:00:21;;;;;;;8.45;3.90;;;0.10;99.90;;;;;;4863073;29;20446;-69
2023/04/05 01:03:00;;;;;;;8.43;4.45;;;0.10;99.90;;;;;;4860482;29;20040;-69
2023/04/05 01:05:59;;;;;;;8.63;4.15;;;0.00;99.90;;;;;;4875122;29;20779;-69
2023/04/05 01:08:39;;;;;;;8.75;4.10;;;0.00;99.90;;;;;;4877453;29;20040;-69
2023/04/05 01:11:07;;;;;;;8.70;4.10;;;-0.10;99.90;;;;;;4878344;29;20072;-69
2023/04/05 01:13:33;;;;;;;10.55;4.10;;;-0.10;99.90;;;;;;4862356;29;20084;-69
2023/04/05 01:15:59;;;;;;;7.73;4.13;;;-0.20;99.90;;;;;;4877304;29;20078;-69
2023/04/05 01:18:26;;;;;;;10.67;4.03;;;-0.20;99.90;;;;;;4875018;29;20041;-69
2023/04/05 01:21:17;;;;;;;9.88;4.50;;;-0.20;99.90;;;;;;4862757;29;20075;-69
2023/04/05 01:23:58;;;;;;;11.00;4.38;;;-0.30;99.90;;;;;;4875561;29;20052;-69
2023/04/05 01:26:53;;;;;;;8.88;4.53;;;-0.40;99.90;;;;;;4876954;29;20054;-69
2023/04/05 01:29:58;;;;;;;11.70;4.57;;;-0.40;99.90;;;;;;4878073;29;20131;-69
2023/04/05 01:32:58;;;;;;;8.93;4.72;;;-0.40;99.90;;;;;;4876269;29;20048;-69
2023/04/05 01:35:59;;;;;;;11.23;4.85;;;-0.50;99.90;;;;;;4793012;29;20063;-69
2023/04/05 01:38:27;;;;;;;10.85;4.10;;;-0.50;99.90;;;;;;4827495;29;20052;-69
2023/04/05 01:40:53;;;;;;;9.15;4.20;;;-0.50;99.90;;;;;;4877930;29;20067;-69
2023/04/05 01:43:19;;;;;;;9.57;4.47;;;-0.50;99.90;;;;;;4878084;29;20571;-69
2023/04/05 01:45:45;;;;;;;9.50;4.53;;;-0.50;99.90;;;;;;4860161;29;20076;-69
2023/04/05 01:48:12;;;;;;;8.20;4.57;;;-0.50;99.90;;;;;;4875821;29;20036;-69
2023/04/05 01:50:38;;;;;;;10.40;4.57;;;-0.60;99.90;;;;;;4877901;29;20123;-69
2023/04/05 01:53:06;;;;;;;8.73;4.57;;;-0.60;99.90;;;;;;4861770;29;20168;-69
2023/04/05 01:55:32;;;;;;;9.32;4.47;;;-0.60;99.90;;;;;;4876900;29;20080;-69
2023/04/05 01:57:58;;;;;;;8.10;4.53;;;-0.60;99.90;;;;;;4862436;29;20071;-69
2023/04/05 02:00:24;;;;;;;10.47;5.10;;;-0.60;99.90;;;;;;4862016;29;20044;-69
2023/04/05 02:02:49;;;;;;;9.85;4.55;;;-0.70;99.90;;;;;;4872872;29;20108;-69
2023/04/05 02:05:15;;;;;;;11.63;5.20;;;-0.70;99.90;;;;;;4858373;29;20117;-69
2023/04/05 02:07:40;;;;;;;11.30;4.80;;;-0.70;99.90;;;;;;4877697;29;20103;-69
2023/04/05 02:10:07;;;;;;;9.07;4.60;;;-0.80;99.90;;;;;;4877056;29;20120;-69
2023/04/05 02:12:33;;;;;;;10.98;4.82;;;-0.80;99.90;;;;;;4874023;29;20052;-69
2023/04/05 02:14:59;;;;;;;10.33;5.03;;;-0.90;99.90;;;;;;4876652;29;20485;-69
2023/04/05 02:17:32;;;;;;;10.18;5.03;;;-0.90;99.90;;;;;;4876039;29;20288;-69
2023/04/05 02:20:01;;;;;;;13.18;4.82;;;-0.90;99.90;;;;;;4877535;29;20103;-69
2023/04/05 02:22:27;;;;;;;9.80;4.32;;;-1.00;99.90;;;;;;4877366;29;20698;-69
2023/04/05 02:24:53;;;;;;;11.38;5.13;;;-1.00;99.90;;;;;;4876699;29;20076;-69
2023/04/05 02:27:18;;;;;;;12.67;4.83;;;-1.00;99.90;;;;;;4876904;29;20092;-69
2023/04/05 02:29:44;;;;;;;11.67;4.40;;;-1.00;99.90;;;;;;4864082;29;20127;-69
2023/04/05 02:32:10;;;;;;;8.17;4.70;;;-1.10;99.90;;;;;;4881274;29;20045;-69
2023/04/05 02:34:40;;;;;;;9.90;4.50;;;-1.10;99.90;;;;;;4872354;29;20120;-69
2023/04/05 02:37:06;;;;;;;8.60;4.78;;;-1.10;99.90;;;;;;4879567;29;20068;-69
2023/04/05 02:39:32;;;;;;;13.10;5.72;;;-1.10;99.90;;;;;;4881305;29;20782;-69
2023/04/05 02:41:58;;;;;;;11.23;5.25;;;-1.10;99.90;;;;;;4880560;29;20056;-69
2023/04/05 02:44:24;;;;;;;12.63;6.27;;;-1.10;99.90;;;;;;4881353;29;20103;-69
2023/04/05 02:46:50;;;;;;;11.93;5.30;;;-1.10;99.90;;;;;;4880740;29;20050;-69
2023/04/05 02:49:15;;;;;;;9.07;5.03;;;-1.10;99.90;;;;;;4879340;29;20080;-69
2023/04/05 02:51:41;;;;;;;11.80;5.00;;;-1.10;99.90;;;;;;4880628;29;20044;-69
2023/04/05 02:54:07;;;;;;;12.37;5.70;;;-1.00;99.90;;;;;;4880665;29;20040;-69
2023/04/05 02:56:33;;;;;;;11.63;5.70;;;-1.00;99.90;;;;;;4880795;29;20387;-69
2023/04/05 02:58:58;;;;;;;11.43;5.27;;;-1.00;99.90;;;;;;4880495;29;20041;-69
2023/04/05 03:01:24;;;;;;;11.63;5.20;;;-1.00;99.90;;;;;;4877325;29;20033;-69
2023/04/05 03:03:50;;;;;;;11.77;5.10;;;-1.00;99.90;;;;;;4879543;29;20143;-69
2023/04/05 03:06:16;;;;;;;11.10;5.73;;;-1.00;99.90;;;;;;4864278;29;20048;-69
2023/04/05 03:08:47;;;;;;;11.90;5.23;;;-1.00;99.90;;;;;;4879287;29;20164;-68
2023/04/05 03:11:13;;;;;;;11.82;4.97;;;-1.00;99.90;;;;;;4880672;29;20060;-69
2023/04/05 03:13:39;;;;;;;10.93;5.93;;;-1.00;99.90;;;;;;4876816;29;20370;-69
2023/04/05 03:16:05;;;;;;;10.70;5.10;;;-1.00;99.90;;;;;;4864737;29;20051;-69
2023/04/05 03:18:31;;;;;;;13.50;5.80;;;-1.00;99.90;;;;;;4879723;29;20044;-69
2023/04/05 03:20:57;;;;;;;10.37;5.77;;;-1.10;99.90;;;;;;4880253;29;20036;-69
2023/04/05 03:23:30;;;;;;;13.57;5.80;;;-1.10;99.90;;;;;;4880422;29;20051;-69
2023/04/05 03:26:00;;;;;;;10.00;6.13;;;-1.00;99.90;;;;;;4880162;29;20058;-69
2023/04/05 03:28:26;;;;;;;9.52;5.35;;;-1.00;99.90;;;;;;4879396;29;20052;-69
2023/04/05 03:30:52;;;;;;;11.00;6.15;;;-1.00;99.90;;;;;;4864584;29;20572;-69
2023/04/05 03:33:18;;;;;;;17.03;7.00;;;-1.10;99.90;;;;;;4880117;29;20041;-69
2023/04/05 03:35:44;;;;;;;12.30;6.10;;;-1.10;99.90;;;;;;4864533;29;20124;-69
2023/04/05 03:38:10;;;;;;;12.90;6.13;;;-1.10;99.90;;;;;;4878106;29;20069;-69
2023/04/05 03:40:37;;;;;;;11.13;5.73;;;-1.10;99.90;;;;;;4878604;29;20135;-69
2023/04/05 03:43:02;;;;;;;13.48;5.95;;;-1.10;99.90;;;;;;4880322;29;20123;-69
2023/04/05 03:45:28;;;;;;;13.10;6.60;;;-1.10;99.90;;;;;;4864751;29;20048;-69
2023/04/05 03:47:55;;;;;;;11.05;6.40;;;-1.10;99.90;;;;;;4879941;29;20044;-69
2023/04/05 03:50:21;;;;;;;13.27;6.97;;;-1.10;99.90;;;;;;4863486;29;20451;-69
2023/04/05 03:52:47;;;;;;;15.30;6.53;;;-1.10;99.90;;;;;;4879211;29;20060;-69
2023/04/05 03:55:13;;;;;;;13.33;6.73;;;-1.10;99.90;;;;;;4879631;29;20285;-69
2023/04/05 03:57:40;;;;;;;14.50;7.40;;;-1.10;99.90;;;;;;4864718;29;20054;-69
2023/04/05 04:00:13;;;;;;;12.23;6.28;;;-1.10;99.90;;;;;;4863488;29;20048;-69
2023/04/05 04:02:47;;;;;;;15.32;6.80;;;-1.20;99.90;;;;;;4860613;29;20057;-69
2023/04/05 04:05:14;;;;;;;14.75;6.85;;;-1.20;99.90;;;;;;4861217;29;20079;-69
2023/04/05 04:07:41;;;;;;;13.32;6.97;;;-1.20;99.90;;;;;;4879893;29;20553;-69
2023/04/05 04:10:09;;;;;;;13.68;7.70;;;-1.20;99.90;;;;;;4879478;29;20409;-69
2023/04/05 04:12:34;;;;;;;16.02;7.53;;;-1.20;99.90;;;;;;4866257;29;20520;-69
2023/04/05 04:15:00;;;;;;;12.63;7.00;;;-1.20;99.90;;;;;;4878497;29;20045;-69
2023/04/05 04:17:34;;;;;;;15.20;6.95;;;-1.20;99.90;;;;;;4877226;29;20409;-69
2023/04/05 04:20:00;;;;;;;14.32;7.75;;;-1.20;99.90;;;;;;4861913;29;20044;-69
2023/04/05 04:22:32;;;;;;;18.27;8.03;;;-1.20;99.90;;;;;;4879295;29;20041;-69
2023/04/05 04:25:03;;;;;;;15.10;8.25;;;-1.20;99.90;;;;;;4879572;29;20044;-69
2023/04/05 04:27:29;;;;;;;16.50;8.63;;;-1.20;99.90;;;;;;4879214;29;20049;-69
2023/04/05 04:30:00;;;;;;;14.80;8.52;;;-1.20;99.90;;;;;;4877869;29;20049;-69
2023/04/05 04:32:50;;;;;;;14.75;8.43;;;-1.20;99.90;;;;;;4878960;29;20060;-69
2023/04/05 04:35:19;;;;;;;14.55;7.95;;;-1.30;99.90;;;;;;4879155;29;20044;-69
2023/04/05 04:37:53;;;;;;;16.77;7.95;;;-1.40;99.90;;;;;;4862885;29;20040;-69
2023/04/05 04:40:21;;;;;;;13.13;7.60;;;-1.40;99.90;;;;;;4877450;29;20604;-69
2023/04/05 04:42:48;;;;;;;18.73;7.57;;;-1.40;99.90;;;;;;4877503;29;20056;-69
2023/04/05 04:45:16;;;;;;;16.77;7.43;;;-1.50;99.90;;;;;;4866538;29;20546;-69
2023/04/05 04:47:46;;;;;;;14.57;8.07;;;-1.50;99.90;;;;;;4878259;29;20068;-69
2023/04/05 04:50:12;;;;;;;14.07;8.27;;;-1.60;99.90;;;;;;4877879;29;20127;-69
2023/04/05 04:52:39;;;;;;;17.10;8.48;;;-1.60;99.90;;;;;;4876931;29;20456;-69
2023/04/05 04:55:08;;;;;;;17.17;8.48;;;-1.60;99.90;;;;;;4883066;29;20049;-69
2023/04/05 04:57:35;;;;;;;16.45;8.82;;;-1.60;99.90;;;;;;4875458;29;20040;-68
2023/04/05 05:00:01;;;;;;;15.57;8.85;;;-1.60;99.90;;;;;;4875591;29;20128;-68
2023/04/05 05:02:27;;;;;;;16.38;8.60;;;-1.60;99.90;;;;;;4852072;29;20426;-68
2023/04/05 05:04:53;;;;;;;17.20;9.00;;;-1.60;99.90;;;;;;4876681;29;20132;-69
2023/04/05 05:07:19;;;;;;;17.13;9.33;;;-1.60;99.90;;;;;;4862198;29;20040;-68
2023/04/05 05:09:46;;;;;;;16.40;8.68;;;-1.60;99.90;;;;;;4876595;29;20079;-68
2023/04/05 05:12:12;;;;;;;14.68;8.80;;;-1.60;99.90;;;;;;4877771;29;20080;-68
2023/04/05 05:14:38;;;;;;;19.60;9.93;;;-1.60;99.90;;;;;;4878391;29;20098;-68
2023/04/05 05:17:05;;;;;;;16.90;9.63;;;-1.60;99.90;;;;;;4875621;29;20044;-69
2023/04/05 05:19:31;;;;;;;18.98;9.68;;;-1.60;99.90;;;;;;4875221;29;20045;-69
2023/04/05 05:21:57;;;;;;;20.40;10.37;;;-1.60;99.90;;;;;;4862166;29;20100;-69
2023/04/05 05:24:23;;;;;;;19.23;10.53;;;-1.50;99.90;;;;;;4862145;29;20071;-68
2023/04/05 05:26:49;;;;;;;20.52;10.73;;;-1.50;99.90;;;;;;4862394;29;20288;-68
2023/04/05 05:29:15;;;;;;;20.55;11.95;;;-1.40;99.90;;;;;;4871261;29;20045;-68
2023/04/05 05:31:41;;;;;;;20.60;12.03;;;-1.30;99.90;;;;;;4875683;29;20371;-69
2023/04/05 05:34:07;;;;;;;20.57;11.27;;;-1.20;99.90;;;;;;4870816;29;20449;-69
2023/04/05 05:36:33;;;;;;;25.73;12.50;;;-1.10;99.90;;;;;;4861817;29;20535;-69
2023/04/05 05:38:59;;;;;;;20.75;11.00;;;-1.10;99.90;;;;;;4858640;29;20072;-69
2023/04/05 05:41:24;;;;;;;22.33;11.30;;;-1.00;99.90;;;;;;4872885;29;20044;-69
2023/04/05 05:43:50;;;;;;;20.07;11.40;;;-0.90;99.90;;;;;;4861997;29;20040;-69
2023/04/05 05:46:18;;;;;;;23.00;12.17;;;-0.90;99.90;;;;;;4870232;29;20052;-69
2023/04/05 05:48:43;;;;;;;21.48;12.27;;;-0.80;99.90;;;;;;4877314;29;20660;-69
2023/04/05 05:51:09;;;;;;;21.27;11.23;;;-0.70;99.90;;;;;;4871492;29;20040;-69
2023/04/05 05:53:38;;;;;;;22.43;11.27;;;-0.60;99.90;;;;;;4877089;29;20175;-69
2023/04/05 05:56:05;;;;;;;23.30;11.98;;;-0.50;99.90;;;;;;4860701;29;20045;-69
2023/04/05 05:58:31;;;;;;;19.27;11.63;;;-0.50;99.90;;;;;;4872406;29;20056;-69
2023/04/05 06:00:57;;;;;;;21.92;12.27;;;-0.40;99.90;;;;;;4872773;29;20048;-69
2023/04/05 06:03:28;;;;;;;18.48;11.57;;;-0.30;99.90;;;;;;4875008;29;20083;-69
2023/04/05 06:05:55;;;;;;;22.65;12.00;;;-0.30;99.90;;;;;;4876955;29;20048;-69
2023/04/05 06:08:21;;;;;;;20.88;12.23;;;-0.10;99.90;;;;;;4876493;29;20040;-69
2023/04/05 06:10:48;;;;;;;24.92;12.88;;;-0.10;99.90;;;;;;4876669;29;20076;-69
2023/04/05 06:13:14;;;;;;;21.95;12.13;;;0.00;99.90;;;;;;4861161;29;20052;-69
2023/04/05 06:15:42;;;;;;;22.50;11.87;;;0.10;99.90;;;;;;4861500;29;20041;-69
2023/04/05 06:18:08;;;;;;;18.02;11.07;;;0.20;99.90;;;;;;4876340;29;20311;-69
2023/04/05 06:20:34;;;;;;;20.00;12.07;;;0.30;99.90;;;;;;4876676;29;20044;-69
2023/04/05 06:23:00;;;;;;;18.75;11.32;;;0.40;99.90;;;;;;4861279;29;20045;-69
2023/04/05 06:25:26;;;;;;;21.30;11.67;;;0.50;99.90;;;;;;4876795;29;20493;-69
2023/04/05 06:27:52;;;;;;;20.47;12.03;;;0.60;99.90;;;;;;4876789;29;20516;-69
2023/04/05 06:30:17;;;;;;;23.83;12.50;;;0.70;99.90;;;;;;4857727;29;20287;-69
2023/04/05 06:32:43;;;;;;;19.40;11.17;;;0.80;99.90;;;;;;4856388;29;20056;-69
2023/04/05 06:35:09;;;;;;;16.67;10.63;;;0.90;99.90;;;;;;4876988;29;20039;-69
2023/04/05 06:37:34;;;;;;;22.60;11.57;;;0.90;99.90;;;;;;4861230;29;20548;-69
2023/04/05 06:40:00;;;;;;;24.57;12.00;;;1.00;99.90;;;;;;4859173;29;20480;-69
2023/04/05 06:42:26;;;;;;;21.20;12.33;;;1.10;99.90;;;;;;4877190;29;20045;-69
2023/04/05 06:44:51;;;;;;;19.03;10.90;;;1.20;99.90;;;;;;4878416;29;20076;-69
2023/04/05 06:47:17;;;;;;;22.40;12.17;;;1.30;99.90;;;;;;4873990;29;20052;-69
2023/04/05 06:49:43;;;;;;;21.33;11.73;;;1.30;99.90;;;;;;4874195;29;20509;-70
2023/04/05 06:52:09;;;;;;;21.70;12.33;;;1.40;99.90;;;;;;4877701;29;20049;-69
2023/04/05 06:54:38;;;;;;;22.70;12.70;;;1.50;99.90;;;;;;4879006;29;20044;-70
2023/04/05 06:57:04;;;;;;;18.30;11.35;;;1.60;99.90;;;;;;4879375;29;20072;-69
2023/04/05 06:59:30;;;;;;;19.73;11.60;;;1.70;99.90;;;;;;4864012;29;20041;-70
2023/04/05 07:01:55;;;;;;;21.13;12.43;;;1.80;99.90;;;;;;4863617;29;20506;-69
2023/04/05 07:04:21;;;;;;;22.63;11.97;;;1.90;99.90;;;;;;4878260;29;20047;-69
2023/04/05 07:06:47;;;;;;;20.95;11.98;;;2.00;99.90;;;;;;4873703;29;20074;-69
2023/04/05 07:09:13;;;;;;;23.43;13.30;;;2.10;99.90;;;;;;4855446;29;20036;-69
2023/04/05 07:11:39;;;;;;;23.47;12.97;;;2.20;99.90;;;;;;4874016;29;20564;-69
2023/04/05 07:14:05;;;;;;;20.50;12.27;;;2.30;99.90;;;;;;4874862;29;20040;-69
2023/04/05 07:16:31;;;;;;;20.27;12.82;;;2.40;99.90;;;;;;4877907;29;20073;-70
2023/04/05 07:18:57;;;;;;;20.20;13.17;;;2.50;99.90;;;;;;4882606;29;20041;-70
2023/04/05 07:21:22;;;;;;;22.93;12.97;;;2.60;99.90;;;;;;4881629;29;20149;-70
2023/04/05 07:23:48;;;;;;;19.40;12.90;;;2.60;99.90;;;;;;4882401;29;20327;-69
2023/04/05 07:26:14;;;;;;;20.80;11.77;;;2.70;99.90;;;;;;4882225;29;20356;-70
2023/04/05 07:28:40;;;;;;;20.50;12.63;;;2.80;99.90;;;;;;4882066;29;20500;-70
2023/04/05 07:31:06;;;;;;;19.70;12.60;;;2.90;99.90;;;;;;4866173;29;20163;-70
2023/04/05 07:33:33;;;;;;;18.58;11.40;;;3.00;99.90;;;;;;4881470;29;20056;-70
2023/04/05 07:35:58;;;;;;;23.30;12.57;;;3.10;99.90;;;;;;4866514;29;20108;-69
2023/04/05 07:38:26;;;;;;;20.03;11.43;;;3.20;99.90;;;;;;4866869;29;20160;-68
2023/04/05 07:40:52;;;;;;;20.08;12.10;;;3.30;99.90;;;;;;4881470;29;20040;-69
2023/04/05 07:43:18;;;;;;;20.53;12.17;;;3.40;99.90;;;;;;4880899;29;20543;-69
2023/04/05 07:45:44;;;;;;;21.13;12.52;;;3.50;99.90;;;;;;4865926;29;20056;-69
2023/04/05 07:48:10;;;;;;;18.20;12.27;;;3.60;99.90;;;;;;4866296;29;20112;-69
2023/04/05 07:50:38;;;;;;;18.63;11.80;;;3.70;99.90;;;;;;4878064;29;20076;-70
2023/04/05 07:53:04;;;;;;;16.50;11.75;;;3.80;99.90;;;;;;4878067;29;20151;-69
2023/04/05 07:55:30;;;;;;;18.15;11.25;;;3.90;99.90;;;;;;4881219;29;20044;-69
2023/04/05 07:57:57;;;;;;;17.40;10.87;;;3.90;99.90;;;;;;4864089;29;20036;-69
2023/04/05 08:00:23;;;;;;;16.70;10.68;;;4.10;99.90;;;;;;4879303;29;20051;-69
2023/04/05 08:02:48;;;;;;;17.40;11.23;;;4.20;99.90;;;;;;4876894;29;20614;-69
2023/04/05 08:05:14;;;;;;;16.93;10.63;;;4.30;99.90;;;;;;4879364;29;20108;-69
2023/04/05 08:07:40;;;;;;;17.23;11.45;;;4.40;99.90;;;;;;4861674;29;20131;-70
2023/04/05 08:10:06;;;;;;;15.57;10.70;;;4.50;99.90;;;;;;4863216;29;20370;-69
2023/04/05 08:12:33;;;;;;;18.85;11.25;;;4.60;99.90;;;;;;4877373;29;20057;-70
2023/04/05 08:14:59;;;;;;;16.23;10.93;;;4.70;99.90;;;;;;4880179;29;20050;-70
2023/04/05 08:17:27;;;;;;;18.27;11.87;;;4.80;99.90;;;;;;4879343;29;20123;-70
2023/04/05 08:19:53;;;;;;;17.25;10.80;;;4.90;99.90;;;;;;4863440;29;20044;-70
2023/04/05 08:22:19;;;;;;;17.60;10.95;;;5.00;99.90;;;;;;4878158;29;20045;-70
2023/04/05 08:24:45;;;;;;;16.58;10.80;;;5.10;99.90;;;;;;4878411;29;20056;-70
2023/04/05 08:27:11;;;;;;;16.23;9.93;;;5.20;99.90;;;;;;4877221;29;20764;-70
2023/04/05 08:29:37;;;;;;;16.30;10.30;;;5.30;99.90;;;;;;4862306;29;20393;-70
2023/04/05 08:32:03;;;;;;;16.35;10.75;;;5.40;99.90;;;;;;4861606;29;20060;-70
2023/04/05 08:34:29;;;;;;;16.88;10.73;;;5.50;99.90;;;;;;4877095;29;20077;-70
2023/04/05 08:36:58;;;;;;;16.15;10.40;;;5.60;99.90;;;;;;4877243;29;20044;-70
2023/04/05 08:39:25;;;;;;;17.15;10.73;;;5.60;99.90;;;;;;4862188;29;20071;-70
2023/04/05 08:42:02;;;;;;;16.02;11.00;;;5.80;99.90;;;;;;4876978;29;20038;-70
2023/04/05 08:44:30;;;;;;;15.85;10.52;;;5.90;99.90;;;;;;4873396;29;20048;-70
2023/04/05 08:46:59;;;;;;;14.30;9.95;;;6.00;99.90;;;;;;4866323;29;20044;-70
2023/04/05 08:49:26;;;;;;;14.10;10.65;;;6.10;99.90;;;;;;4870721;29;20534;-70
2023/04/05 08:51:53;;;;;;;13.48;9.88;;;6.20;99.90;;;;;;4872452;29;20048;-70
2023/04/05 08:54:20;;;;;;;17.10;11.10;;;6.20;99.90;;;;;;4876829;29;20080;-70
2023/04/05 08:56:48;;;;;;;17.42;9.93;;;6.30;99.90;;;;;;4860600;29;20171;-70
2023/04/05 08:59:17;;;;;;;14.02;9.43;;;6.40;99.90;;;;;;4859521;29;20092;-70
2023/04/05 09:01:44;;;;;;;17.25;10.45;;;6.50;99.90;;;;;;4876697;29;20059;-70
2023/04/05 09:04:31;;;;;;;14.05;10.07;;;6.60;99.90;;;;;;4876990;29;20505;-70
2023/04/05 09:06:58;;;;;;;13.65;9.63;;;6.70;99.90;;;;;;4876859;29;20048;-70
2023/04/05 09:09:24;;;;;;;14.52;10.25;;;6.90;99.90;;;;;;4877296;29;20064;-70
2023/04/05 09:11:51;;;;;;;15.35;9.15;;;7.00;99.90;;;;;;4862068;29;20070;-70
2023/04/05 09:14:17;;;;;;;17.13;9.82;;;7.10;99.90;;;;;;4871499;29;20040;-70
2023/04/05 09:16:43;;;;;;;14.32;9.52;;;7.10;99.90;;;;;;4856577;29;20037;-70
2023/04/05 09:19:13;;;;;;;15.27;8.13;;;7.10;99.90;;;;;;4870225;29;20080;-71
2023/04/05 09:21:59;;;;;;;15.82;8.80;;;7.20;99.90;;;;;;4861152;29;20048;-69
2023/04/05 09:24:40;;;;;;;;;;;7.30;99.90;;;;;;4860701;29;20044;-69
2023/04/05 09:27:17;;;;;;;15.73;8.27;;;7.40;99.90;;;;;;4860240;29;20001;-70
2023/04/05 09:29:48;;;;;;;10.02;7.65;;;7.50;99.90;;;;;;4875594;29;20044;-71
2023/04/05 09:32:15;;;;;;;14.23;8.02;;;7.50;98.40;;;;;;4866202;29;20052;-71
2023/04/05 09:34:41;;;;;;;12.10;7.25;;;7.60;95.20;;;;;;4865341;29;20238;-70
2023/04/05 09:37:21;;;;;;;8.82;6.25;;;7.70;93.60;;;;;;4876649;29;20047;-70
2023/04/05 09:39:50;;;;;;;11.55;7.20;;;7.80;89.60;;;;;;4877368;29;20498;-70
2023/04/05 09:42:18;;;;;;;11.48;7.20;;;7.80;79.60;;;;;;4861690;29;20080;-70
2023/04/05 09:45:01;;;;;;;12.48;6.97;;;7.90;80.30;;;;;;4862238;29;20056;-70
2023/04/05 09:47:33;;;;;;;11.50;7.10;;;8.00;73.80;;;;;;4871799;29;20108;-71
2023/04/05 09:50:19;;;;;;;17.13;6.55;;;8.00;75.10;;;;;;4856384;29;20044;-71
2023/04/05 09:52:45;;;;;;;10.07;6.70;;;8.20;71.00;;;;;;4865083;29;20057;-69
2023/04/05 09:55:12;;;;;;;10.65;7.00;;;8.20;68.70;;;;;;4861255;29;20037;-69
2023/04/05 09:57:40;;;;;;;10.75;7.13;;;8.30;69.60;;;;;;4876774;29;20040;-70
2023/04/05 10:00:16;;;;;;;10.65;7.00;;;8.40;69.90;;;;;;4861832;29;20041;-70
2023/04/05 10:02:42;;;;;;;11.60;6.90;;;8.50;69.50;;;;;;4877198;29;20055;-70
2023/04/05 10:05:12;;;;;;;11.32;6.65;;;8.60;67.90;;;;;;4877136;29;20470;-70
2023/04/05 10:07:38;;;;;;;11.25;6.75;;;8.60;64.50;;;;;;4859434;29;20047;-70
2023/04/05 10:10:04;;;;;;;11.23;6.88;;;8.60;65.00;;;;;;4876894;29;20139;-70
2023/04/05 10:12:31;;;;;;;8.88;5.82;;;8.70;62.60;;;;;;4869881;29;20127;-71
2023/04/05 10:14:58;;;;;;;10.55;6.32;;;8.70;64.00;;;;;;4877266;29;20036;-70
2023/04/05 10:17:30;;;;;;;10.75;7.05;;;8.70;61.10;;;;;;4860884;29;20043;-70
2023/04/05 10:20:08;;;;;;;11.02;6.60;;;8.70;60.90;;;;;;4861314;29;20052;-71
2023/04/05 10:22:53;;;;;;;11.40;6.50;;;8.80;62.30;;;;;;4876981;29;20047;-70
2023/04/05 10:25:31;;;;;;;10.27;5.53;;;8.90;60.20;;;;;;4868244;29;20123;-70
2023/04/05 10:28:11;;;;;;;9.43;5.53;;;9.00;57.70;;;;;;4875060;29;20451;-70
2023/04/05 10:30:45;;;;;;;7.13;5.20;;;9.00;55.60;;;;;;4861432;29;20114;-70
2023/04/05 10:33:23;;;;;;;11.63;5.53;;;9.00;54.50;;;;;;4846169;29;20045;-70
2023/04/05 10:36:00;;;;;;;6.80;4.75;;;9.00;51.70;;;;;;4872704;29;20044;-70
2023/04/05 10:38:27;;;;;;;7.35;4.57;;;9.10;56.60;;;;;;4874907;29;20036;-70
2023/04/05 10:41:01;;;;;;;7.35;4.90;;;9.20;55.30;;;;;;4875720;29;20048;-71
2023/04/05 10:43:27;;;;;;;8.48;5.60;;;9.20;52.40;;;;;;4860145;29;20049;-70
2023/04/05 10:45:56;;;;;;;8.98;5.75;;;9.30;52.40;;;;;;4875075;29;20128;-71
2023/04/05 10:48:45;;;;;;;10.05;6.00;;;9.40;51.90;;;;;;4877477;29;20052;-71
2023/04/05 10:51:12;;;;;;;8.70;5.18;;;9.50;52.60;;;;;;4855927;29;20072;-71
2023/04/05 10:53:39;;;;;;;7.97;5.75;;;9.50;49.60;;;;;;4879165;29;20048;-71
2023/04/05 10:56:05;;;;;;;9.98;5.45;;;9.40;49.00;;;;;;4874558;29;20710;-71
2023/04/05 10:58:32;;;;;;;8.13;4.88;;;9.40;50.90;;;;;;4864905;29;20465;-71
2023/04/05 11:00:59;;;;;;;7.53;4.95;;;9.40;49.50;;;;;;4863249;29;20048;-70
2023/04/05 11:03:54;;;;;;;5.80;4.22;;;9.40;49.10;;;;;;4865510;29;20056;-71
2023/04/05 11:06:28;;;;;;;6.80;4.20;;;9.60;47.80;;;;;;4880682;29;20064;-71
2023/04/05 11:09:19;;;;;;;9.20;4.53;;;9.70;46.90;;;;;;4879549;29;20045;-71
2023/04/05 11:11:49;;;;;;;6.53;4.50;;;9.80;47.80;;;;;;4864345;29;20064;-70
2023/04/05 11:14:19;;;;;;;10.18;4.93;;;9.80;48.10;;;;;;4880693;29;20048;-72
2023/04/05 11:16:55;;;;;;;6.38;4.00;;;9.90;48.30;;;;;;4880348;29;20048;-71
2023/04/05 11:19:41;;;;;;;7.22;4.45;;;9.90;47.30;;;;;;4864797;29;20036;-72
2023/04/05 11:22:07;;;;;;;7.32;4.18;;;10.00;46.90;;;;;;4862590;29;20060;-71
2023/04/05 11:25:03;;;;;;;7.90;4.90;;;10.10;49.10;;;;;;4879831;29;20045;-71
2023/04/05 11:27:31;;;;;;;6.25;4.80;;;10.20;48.40;;;;;;4879039;29;20056;-71
2023/04/05 11:29:59;;;;;;;8.00;5.03;;;10.30;45.90;;;;;;4879582;29;20489;-71
2023/04/05 11:32:40;;;;;;;6.30;4.00;;;10.30;45.70;;;;;;4878276;29;20049;-71
2023/04/05 11:35:11;;;;;;;7.40;4.93;;;10.30;45.90;;;;;;4894798;29;20060;-71
2023/04/05 11:38:00;;;;;;;11.60;4.80;;;10.30;45.80;;;;;;4881446;29;20043;-71
2023/04/05 11:40:33;;;;;;;11.13;5.20;;;10.30;44.60;;;;;;4880433;29;20096;-71
2023/04/05 11:43:10;;;;;;;6.93;5.20;;;10.40;46.60;;;;;;4871823;29;20091;-71
2023/04/05 11:45:40;;;;;;;9.15;5.18;;;10.40;46.30;;;;;;4882461;29;20048;-71
2023/04/05 11:48:12;;;;;;;6.35;5.05;;;10.30;46.20;;;;;;4880783;29;20131;-71
2023/04/05 11:50:43;;;;;;;6.82;4.88;;;10.40;45.60;;;;;;4864624;29;20403;-72
2023/04/05 11:53:17;;;;;;;7.78;5.28;;;10.40;47.20;;;;;;4881152;29;20501;-72
2023/04/05 11:55:49;;;;;;;9.63;6.00;;;10.40;46.70;;;;;;4879754;29;20054;-72
2023/04/05 11:58:25;;;;;;;9.93;5.55;;;10.40;46.70;;;;;;4866136;29;20032;-71
2023/04/05 12:00:58;;;;;;;8.73;5.50;;;10.40;46.40;;;;;;4880131;29;20123;-71
2023/04/05 12:03:27;;;;;;;8.60;5.25;;;10.60;48.90;;;;;;4881805;29;20073;-70
2023/04/05 12:05:54;;;;;;;7.47;4.75;;;10.70;47.00;;;;;;4865635;29;20331;-71
2023/04/05 12:08:22;;;;;;;8.13;4.68;;;10.80;46.80;;;;;;4865504;29;20053;-71
2023/04/05 12:11:00;;;;;;;7.00;4.70;;;10.80;46.50;;;;;;4864392;29;20366;-72
2023/04/05 12:13:31;;;;;;;6.47;5.30;;;10.90;46.30;;;;;;4865524;29;20398;-71
2023/04/05 12:16:03;;;;;;;9.10;5.15;;;11.00;46.80;;;;;;4880172;29;20044;-71
2023/04/05 12:18:31;;;;;;;10.52;5.95;;;11.10;46.60;;;;;;4879535;29;20037;-71
2023/04/05 12:20:57;;;;;;;7.97;5.15;;;11.10;44.60;;;;;;4878780;29;20063;-71
2023/04/05 12:23:24;;;;;;;9.20;5.40;;;10.80;44.00;;;;;;4879666;29;20048;-71
2023/04/05 12:25:53;;;;;;;7.82;5.15;;;10.80;46.30;;;;;;4863880;29;20076;-71
2023/04/05 12:28:19;;;;;;;8.48;4.97;;;10.90;47.30;;;;;;4879476;29;20565;-71
2023/04/05 12:30:52;;;;;;;7.67;5.30;;;11.00;47.70;;;;;;4879317;29;20041;-71
2023/04/05 12:33:32;;;;;;;7.45;5.32;;;11.30;47.60;;;;;;4875264;29;20123;-72
2023/04/05 12:36:03;;;;;;;7.80;5.10;;;11.40;45.70;;;;;;4879545;29;20053;-71
2023/04/05 12:38:29;;;;;;;8.73;5.20;;;11.50;45.90;;;;;;4880316;29;20777;-71
2023/04/05 12:41:02;;;;;;;6.60;4.13;;;11.50;43.20;;;;;;4864101;29;20293;-71
2023/04/05 12:43:41;;;;;;;8.70;4.18;;;11.40;42.10;;;;;;4880465;29;20384;-72
2023/04/05 12:46:15;;;;;;;10.03;5.40;;;11.30;41.90;;;;;;4864405;29;20087;-72
2023/04/05 12:48:41;;;;;;;7.10;4.57;;;11.30;42.90;;;;;;4864474;29;20305;-72
2023/04/05 12:51:14;;;;;;;7.90;4.97;;;11.30;43.60;;;;;;4863887;29;20162;-70
2023/04/05 12:53:46;;;;;;;7.22;4.97;;;11.40;41.70;;;;;;4879194;29;20465;-72